createdAt,value
2023-05-02T00:03:55.109Z,71.59
2023-05-02T00:08:57.065Z,70.24
2023-05-02T00:13:58.656Z,71.14
2023-05-02T00:19:00.227Z,70.86
2023-05-02T00:24:01.822Z,70.75
2023-05-02T00:29:03.440Z,71.63
2023-05-02T00:34:05.093Z,70.82
2023-05-02T00:39:06.712Z,70.54
2023-05-02T00:44:08.686Z,70.12
2023-05-02T00:49:10.381Z,70.24
2023-05-02T00:54:13.687Z,71.06
2023-05-02T00:59:16.464Z,70.59
2023-05-02T01:04:29.173Z,71.19
2023-05-02T01:10:09.376Z,70.53
2023-05-02T01:15:16.546Z,71.36
2023-05-02T01:20:21.728Z,72.11
2023-05-02T01:26:02.528Z,73.50
2023-05-02T01:31:06.075Z,73.10
2023-05-02T01:36:09.009Z,73.60
2023-05-02T01:41:13.021Z,74.35
2023-05-02T01:46:15.304Z,74.51
2023-05-02T01:51:19.142Z,73.25
2023-05-02T01:56:22.006Z,73.35
2023-05-02T02:01:27.653Z,72.51
2023-05-02T02:06:29.419Z,72.68
2023-05-02T02:11:51.018Z,71.15
2023-05-02T02:16:56.255Z,71.92
2023-05-02T02:21:59.348Z,72.39
2023-05-02T02:27:00.997Z,70.82
2023-05-02T02:32:02.634Z,70.98
2023-05-02T02:37:19.194Z,70.82
2023-05-02T02:42:40.073Z,71.46
2023-05-02T02:47:43.929Z,71.69
2023-05-02T02:52:54.507Z,72.41
2023-05-02T02:58:04.143Z,72.67
2023-05-02T03:03:08.012Z,72.59
2023-05-02T03:08:10.052Z,74.80
2023-05-02T03:13:11.671Z,74.38
2023-05-02T03:18:13.345Z,74.90
2023-05-02T03:23:15.458Z,75.72
2023-05-02T03:28:17.027Z,77.28
2023-05-02T03:33:18.951Z,77.30
2023-05-02T03:38:20.647Z,75.92
2023-05-02T03:43:22.306Z,76.47
2023-05-02T03:48:24.012Z,75.07
2023-05-02T03:53:25.652Z,76.15
2023-05-02T03:58:27.624Z,76.88
2023-05-02T04:03:30.149Z,75.97
2023-05-02T04:08:31.863Z,77.57
2023-05-02T04:13:33.519Z,76.99
2023-05-02T04:18:35.221Z,79.09
2023-05-02T04:23:36.861Z,78.82
2023-05-02T04:28:38.540Z,79.38
2023-05-02T04:33:40.072Z,77.76
2023-05-02T04:38:42.294Z,79.00
2023-05-02T04:43:44.585Z,79.84
2023-05-02T04:48:46.351Z,80.10
2023-05-02T04:53:47.987Z,80.65
2023-05-02T04:58:49.700Z,80.49
2023-05-02T05:03:51.501Z,82.37
2023-05-02T05:08:53.214Z,82.70
2023-05-02T05:13:54.831Z,82.12
2023-05-02T05:18:56.436Z,79.80
2023-05-02T05:23:58.025Z,79.75
2023-05-02T05:28:59.649Z,79.63
2023-05-02T05:34:02.512Z,80.23
2023-05-02T05:39:04.480Z,80.80
2023-05-02T05:44:06.078Z,82.12
2023-05-02T05:49:07.672Z,82.98
2023-05-02T05:54:09.284Z,82.75
2023-05-02T05:59:10.964Z,83.11
2023-05-02T06:04:12.679Z,84.96
2023-05-02T06:09:14.370Z,84.25
2023-05-02T06:14:16.400Z,86.03
2023-05-02T06:19:18.002Z,84.79
2023-05-02T06:24:20.973Z,84.99
2023-05-02T06:29:22.583Z,85.33
2023-05-02T06:34:24.236Z,85.58
2023-05-02T06:39:25.824Z,86.45
2023-05-02T06:44:27.476Z,85.72
2023-05-02T06:49:29.060Z,86.66
2023-05-02T06:54:30.671Z,88.05
2023-05-02T06:59:32.257Z,86.95
2023-05-02T07:04:33.884Z,87.61
2023-05-02T07:09:35.664Z,89.42
2023-05-02T07:14:37.311Z,88.63
2023-05-02T07:19:38.933Z,87.42
2023-05-02T07:24:41.881Z,87.47
2023-05-02T07:29:43.506Z,86.79
2023-05-02T07:34:45.313Z,87.55
2023-05-02T07:39:46.950Z,88.09
2023-05-02T07:44:48.588Z,86.94
2023-05-02T07:49:54.352Z,87.56
2023-05-02T07:54:56.421Z,85.91
2023-05-02T07:59:58.131Z,86.15
2023-05-02T08:04:59.848Z,88.30
2023-05-02T08:10:02.071Z,88.10
2023-05-02T08:15:09.197Z,90.99
2023-05-02T08:20:11.154Z,88.52
2023-05-02T08:25:12.726Z,89.66
2023-05-02T08:30:14.634Z,89.65
2023-05-02T08:35:16.419Z,87.63
2023-05-02T08:40:27.089Z,89.91
2023-05-02T08:45:39.236Z,90.97
2023-05-02T08:50:43.585Z,91.23
2023-05-02T08:55:46.260Z,89.84
2023-05-02T09:00:49.182Z,89.37
2023-05-02T09:06:01.955Z,89.48
2023-05-02T09:11:04.862Z,91.43
2023-05-02T09:16:11.677Z,90.14
2023-05-02T09:21:21.040Z,88.87
2023-05-02T09:26:29.554Z,89.64
2023-05-02T09:31:55.094Z,87.42
2023-05-02T09:36:58.452Z,87.21
2023-05-02T09:42:00.153Z,87.25
2023-05-02T09:47:02.358Z,86.26
2023-05-02T09:52:14.504Z,86.74
2023-05-02T09:57:16.356Z,85.79
2023-05-02T10:02:18.237Z,86.69
2023-05-02T10:07:21.121Z,86.03
2023-05-02T10:12:26.871Z,86.39
2023-05-02T10:17:32.207Z,86.53
2023-05-02T10:22:35.447Z,85.54
2023-05-02T10:27:37.962Z,85.46
2023-05-02T10:32:40.425Z,85.17
2023-05-02T10:37:42.895Z,86.18
2023-05-02T10:42:48.012Z,85.69
2023-05-02T10:47:49.715Z,85.49
2023-05-02T10:52:51.487Z,85.66
2023-05-02T10:57:59.457Z,84.67
2023-05-02T11:03:02.265Z,84.60
2023-05-02T11:08:24.379Z,86.93
2023-05-02T11:13:51.295Z,87.39
2023-05-02T11:19:01.811Z,89.75
2023-05-02T11:24:38.919Z,89.37
2023-05-02T11:29:53.985Z,91.02
2023-05-02T11:34:56.136Z,91.09
2023-05-02T11:40:13.964Z,89.28
2023-05-02T11:45:15.782Z,89.27
2023-05-02T11:50:18.482Z,88.37
2023-05-02T11:55:20.078Z,89.66
2023-05-02T12:00:27.634Z,87.85
2023-05-02T12:05:30.410Z,89.10
2023-05-02T12:10:38.588Z,88.27
2023-05-02T12:15:40.646Z,88.82
2023-05-02T12:20:43.124Z,90.11
2023-05-02T12:25:44.752Z,90.53
2023-05-02T12:30:49.294Z,90.77
2023-05-02T12:35:51.311Z,91.07
2023-05-02T12:40:54.658Z,91.21
2023-05-02T12:46:12.139Z,90.58
2023-05-02T12:51:28.665Z,90.86
2023-05-02T12:56:32.840Z,92.83
2023-05-02T13:01:35.008Z,93.44
2023-05-02T13:06:38.465Z,92.92
2023-05-02T13:11:40.436Z,92.53
2023-05-02T13:16:42.190Z,93.07
2023-05-02T13:21:43.854Z,93.43
2023-05-02T13:26:46.299Z,93.69
2023-05-02T13:31:47.850Z,93.13
2023-05-02T13:36:49.471Z,93.00
2023-05-02T13:41:51.027Z,94.06
2023-05-02T13:46:52.627Z,93.53
2023-05-02T13:51:54.260Z,93.72
2023-05-02T13:56:55.972Z,93.43
2023-05-02T14:01:57.766Z,92.87
2023-05-02T14:06:59.445Z,92.01
2023-05-02T14:12:02.075Z,91.28
2023-05-02T14:17:04.052Z,92.16
2023-05-02T14:22:05.631Z,91.42
2023-05-02T14:27:09.335Z,92.39
2023-05-02T14:32:10.945Z,92.55
2023-05-02T14:37:12.568Z,92.31
2023-05-02T14:42:14.179Z,91.04
2023-05-02T14:47:15.815Z,90.81
2023-05-02T14:52:17.447Z,93.17
2023-05-02T14:57:19.494Z,92.94
2023-05-02T15:02:21.943Z,92.58
2023-05-02T15:07:24.008Z,93.12
2023-05-02T15:12:26.853Z,92.68
2023-05-02T15:17:28.421Z,92.75
2023-05-02T15:22:29.971Z,91.38
2023-05-02T15:27:31.622Z,93.73
2023-05-02T15:32:33.536Z,92.82
2023-05-02T15:37:35.513Z,93.27
2023-05-02T15:42:37.315Z,92.19
2023-05-02T15:47:39.634Z,92.26
2023-05-02T15:52:41.594Z,92.08
2023-05-02T15:57:43.619Z,93.56
2023-05-02T16:02:45.335Z,90.93
2023-05-02T16:07:47.119Z,90.68
2023-05-02T16:12:48.768Z,91.54
2023-05-02T16:17:50.716Z,90.42
2023-05-02T16:22:52.403Z,89.81
2023-05-02T16:27:53.992Z,88.90
2023-05-02T16:32:55.805Z,89.35
2023-05-02T16:37:57.526Z,88.36
2023-05-02T16:42:59.276Z,88.16
2023-05-02T16:48:00.956Z,87.61
2023-05-02T16:53:02.850Z,88.86
2023-05-02T16:58:04.487Z,87.74
2023-05-02T17:03:06.475Z,87.17
2023-05-02T17:08:09.205Z,85.79
2023-05-02T17:13:12.949Z,86.37
2023-05-02T17:18:14.620Z,86.17
2023-05-02T17:23:16.368Z,87.32
2023-05-02T17:28:18.250Z,87.34
2023-05-02T17:33:21.100Z,85.52
2023-05-02T17:38:22.980Z,86.21
2023-05-02T17:43:27.260Z,85.87
2023-05-02T17:48:29.710Z,84.73
2023-05-02T17:53:31.526Z,85.77
2023-05-02T17:58:35.443Z,85.21
2023-05-02T18:03:39.206Z,84.49
2023-05-02T18:08:41.600Z,83.76
2023-05-02T18:13:43.855Z,85.46
2023-05-02T18:18:45.891Z,84.64
2023-05-02T18:23:47.684Z,84.78
2023-05-02T18:28:54.715Z,84.71
2023-05-02T18:33:56.518Z,84.42
2023-05-02T18:38:58.642Z,85.26
2023-05-02T18:44:06.722Z,84.83
2023-05-02T18:49:09.735Z,84.52
2023-05-02T18:54:11.965Z,85.38
2023-05-02T18:59:14.000Z,84.75
2023-05-02T19:04:17.966Z,84.87
2023-05-02T19:09:20.897Z,84.64
2023-05-02T19:14:23.276Z,84.46
2023-05-02T19:19:25.404Z,84.07
2023-05-02T19:24:27.959Z,84.99
2023-05-02T19:29:30.551Z,84.57
2023-05-02T19:34:33.472Z,84.12
2023-05-02T19:39:36.183Z,85.11
2023-05-02T19:44:38.516Z,84.92
2023-05-02T19:49:40.519Z,83.71
2023-05-02T19:54:42.673Z,83.59
2023-05-02T19:59:44.740Z,83.83
2023-05-02T20:04:47.130Z,84.40
2023-05-02T20:09:48.865Z,83.14
2023-05-02T20:14:50.560Z,82.72
2023-05-02T20:19:52.698Z,84.74
2023-05-02T20:24:54.613Z,84.18
2023-05-02T20:29:56.385Z,83.80
2023-05-02T20:34:58.180Z,84.01
2023-05-02T20:40:00.360Z,83.01
2023-05-02T20:45:04.968Z,83.71
2023-05-02T20:50:09.478Z,83.75
2023-05-02T20:55:11.331Z,83.77
2023-05-02T21:00:14.323Z,83.05
2023-05-02T21:05:15.986Z,84.39
2023-05-02T21:10:17.739Z,86.32
2023-05-02T21:15:19.332Z,85.07
2023-05-02T21:20:21.531Z,84.52
2023-05-02T21:25:23.641Z,85.26
2023-05-02T21:30:25.277Z,85.10
2023-05-02T21:35:28.771Z,84.75
2023-05-02T21:40:31.932Z,84.94
2023-05-02T21:45:33.566Z,83.95
2023-05-02T21:50:35.145Z,84.33
2023-05-02T21:55:37.739Z,83.75
2023-05-02T22:00:40.827Z,83.98
2023-05-02T22:05:42.553Z,84.89
2023-05-02T22:10:44.342Z,84.77
2023-05-02T22:15:47.406Z,84.10
2023-05-02T22:20:49.040Z,84.68
2023-05-02T22:25:50.757Z,83.69
2023-05-02T22:30:52.404Z,83.97
2023-05-02T22:35:54.003Z,83.80
2023-05-02T22:40:55.591Z,83.34
2023-05-02T22:45:57.227Z,83.85
2023-05-02T22:50:58.897Z,83.65
2023-05-02T22:56:00.639Z,83.04
2023-05-02T23:01:02.317Z,83.23
2023-05-02T23:06:04.113Z,82.83
2023-05-02T23:11:05.939Z,82.51
2023-05-02T23:16:07.737Z,81.81
2023-05-02T23:21:16.394Z,81.46
2023-05-02T23:26:17.988Z,83.96
2023-05-02T23:31:19.679Z,82.75
2023-05-02T23:36:21.669Z,85.15
2023-05-02T23:41:23.525Z,86.44
2023-05-02T23:46:25.683Z,86.76
2023-05-02T23:51:28.488Z,87.61
2023-05-02T23:56:30.101Z,88.12
